createdAt,value
2022-12-15T00:02:00.441Z,75.60
2022-12-15T00:05:42.441Z,75.60
2022-12-15T00:09:29.348Z,75.60
2022-12-15T00:13:14.457Z,75.40
2022-12-15T00:16:56.468Z,75.20
2022-12-15T00:20:39.413Z,75.20
2022-12-15T00:24:21.497Z,75.30
2022-12-15T00:28:03.485Z,75.30
2022-12-15T00:31:49.526Z,75.20
2022-12-15T00:35:30.629Z,75.20
2022-12-15T00:38:58.044Z,75.00
2022-12-15T00:42:26.641Z,75.00
2022-12-15T00:46:06.964Z,74.90
2022-12-15T00:49:51.511Z,74.90
2022-12-15T00:53:33.551Z,74.60
2022-12-15T00:57:16.435Z,74.80
2022-12-15T01:00:59.522Z,75.00
2022-12-15T01:04:43.542Z,74.90
2022-12-15T01:08:26.512Z,75.00
2022-12-15T01:12:08.545Z,75.00
2022-12-15T01:15:50.152Z,75.00
2022-12-15T01:19:31.147Z,75.00
2022-12-15T01:22:56.589Z,74.90
2022-12-15T01:26:21.728Z,74.70
2022-12-15T01:29:46.725Z,74.80
2022-12-15T01:33:10.720Z,74.60
2022-12-15T01:36:35.337Z,74.70
2022-12-15T01:40:17.567Z,74.80
2022-12-15T01:43:42.627Z,74.80
2022-12-15T01:47:09.924Z,74.50
2022-12-15T01:50:38.750Z,74.30
2022-12-15T01:54:07.403Z,74.30
2022-12-15T01:57:33.584Z,74.20
2022-12-15T02:01:00.129Z,74.30
2022-12-15T02:04:25.402Z,74.50
2022-12-15T02:07:49.404Z,74.70
2022-12-15T02:11:48.198Z,74.60
2022-12-15T02:15:20.143Z,75.00
2022-12-15T02:18:59.642Z,75.00
2022-12-15T02:22:35.304Z,75.00
2022-12-15T02:26:47.875Z,75.00
2022-12-15T02:30:26.256Z,75.10
2022-12-15T02:33:55.385Z,75.10
2022-12-15T02:37:25.208Z,75.70
2022-12-15T02:40:49.425Z,74.50
2022-12-15T02:44:18.879Z,74.40
2022-12-15T02:47:53.239Z,74.80
2022-12-15T02:51:35.106Z,75.80
2022-12-15T02:55:13.749Z,75.30
2022-12-15T02:58:47.472Z,75.90
2022-12-15T03:02:14.873Z,75.30
2022-12-15T03:05:39.934Z,75.60
2022-12-15T03:09:05.009Z,75.60
2022-12-15T03:12:29.819Z,75.60
2022-12-15T03:15:54.817Z,75.80
2022-12-15T03:19:20.814Z,75.90
2022-12-15T03:22:45.868Z,76.00
2022-12-15T03:26:11.786Z,76.00
2022-12-15T03:29:35.609Z,76.20
2022-12-15T03:32:59.513Z,76.30
2022-12-15T03:36:23.916Z,76.40
2022-12-15T03:39:49.952Z,76.40
2022-12-15T03:43:13.717Z,76.40
2022-12-15T03:46:40.363Z,76.70
2022-12-15T03:50:04.341Z,76.90
2022-12-15T03:53:28.832Z,77.10
2022-12-15T03:56:54.935Z,78.10
2022-12-15T04:00:21.628Z,77.70
2022-12-15T04:03:47.540Z,77.30
2022-12-15T04:07:11.553Z,77.20
2022-12-15T04:10:36.761Z,76.90
2022-12-15T04:14:02.070Z,76.70
2022-12-15T04:17:33.909Z,76.60
2022-12-15T04:21:01.413Z,76.50
2022-12-15T04:24:43.718Z,76.40
2022-12-15T04:28:27.182Z,76.40
2022-12-15T04:32:09.751Z,76.60
2022-12-15T04:35:53.760Z,76.60
2022-12-15T04:39:36.756Z,76.40
2022-12-15T04:43:17.867Z,76.50
2022-12-15T04:46:59.760Z,76.30
2022-12-15T04:50:42.198Z,76.20
2022-12-15T04:54:24.245Z,76.10
2022-12-15T04:58:08.959Z,76.10
2022-12-15T05:01:51.508Z,76.00
2022-12-15T05:05:36.025Z,76.10
2022-12-15T05:09:19.756Z,76.10
2022-12-15T05:13:00.929Z,76.20
2022-12-15T05:16:43.800Z,76.20
2022-12-15T05:20:26.905Z,76.10
2022-12-15T05:24:08.824Z,76.20
2022-12-15T05:27:51.884Z,76.20
2022-12-15T05:31:33.693Z,76.20
2022-12-15T05:34:57.711Z,76.30
2022-12-15T05:38:21.603Z,76.10
2022-12-15T05:41:45.970Z,76.10
2022-12-15T05:45:13.475Z,76.10
2022-12-15T05:48:40.173Z,76.10
2022-12-15T05:52:05.001Z,76.10
2022-12-15T05:55:28.677Z,76.10
2022-12-15T05:58:52.861Z,76.00
2022-12-15T06:02:24.592Z,75.80
2022-12-15T06:05:54.720Z,75.60
2022-12-15T06:09:20.308Z,75.20
2022-12-15T06:12:44.828Z,75.00
2022-12-15T06:16:13.687Z,74.70
2022-12-15T06:19:39.169Z,74.60
2022-12-15T06:23:02.915Z,74.40
2022-12-15T06:26:34.253Z,74.20
2022-12-15T06:29:58.762Z,74.20
2022-12-15T06:33:24.149Z,74.00
2022-12-15T06:36:50.182Z,73.90
2022-12-15T06:40:14.807Z,73.70
2022-12-15T06:43:38.770Z,73.80
2022-12-15T06:47:02.811Z,73.50
2022-12-15T06:50:26.716Z,73.50
2022-12-15T06:53:54.036Z,73.30
2022-12-15T06:57:21.611Z,73.20
2022-12-15T07:00:46.815Z,73.00
2022-12-15T07:04:11.298Z,72.90
2022-12-15T07:07:35.690Z,72.90
2022-12-15T07:11:06.206Z,72.90
2022-12-15T07:14:30.744Z,73.00
2022-12-15T07:17:56.496Z,73.00
2022-12-15T07:21:20.473Z,72.90
2022-12-15T07:24:46.386Z,72.90
2022-12-15T07:28:12.899Z,72.80
2022-12-15T07:31:36.561Z,72.50
2022-12-15T07:35:00.865Z,72.30
2022-12-15T07:38:24.533Z,72.30
2022-12-15T07:41:48.195Z,72.00
2022-12-15T07:45:14.613Z,71.60
2022-12-15T07:48:38.270Z,71.30
2022-12-15T07:52:01.927Z,71.00
2022-12-15T07:55:49.987Z,70.80
2022-12-15T07:59:10.152Z,70.50
2022-12-15T08:02:35.371Z,70.00
2022-12-15T08:06:03.948Z,69.20
2022-12-15T08:09:28.317Z,68.60
2022-12-15T08:12:51.916Z,67.80
2022-12-15T08:16:15.920Z,66.50
2022-12-15T08:19:41.057Z,63.70
2022-12-15T08:23:04.724Z,59.90
2022-12-15T08:26:31.020Z,57.20
2022-12-15T08:29:55.533Z,55.00
2022-12-15T08:33:19.270Z,53.80
2022-12-15T08:36:44.427Z,52.10
2022-12-15T08:40:09.269Z,52.10
2022-12-15T08:43:33.266Z,51.50
2022-12-15T08:46:58.820Z,49.30
2022-12-15T08:50:22.638Z,49.00
2022-12-15T08:53:48.455Z,48.50
2022-12-15T08:57:12.494Z,47.80
2022-12-15T09:00:36.189Z,47.10
2022-12-15T09:04:02.245Z,46.40
2022-12-15T09:07:25.961Z,47.00
2022-12-15T09:10:52.274Z,48.20
2022-12-15T09:14:16.757Z,49.90
2022-12-15T09:17:40.509Z,50.30
2022-12-15T09:21:05.006Z,50.30
2022-12-15T09:24:34.639Z,51.80
2022-12-15T09:28:00.294Z,51.70
2022-12-15T09:31:28.259Z,52.50
2022-12-15T09:34:52.811Z,51.60
2022-12-15T09:38:16.822Z,49.70
2022-12-15T09:41:42.591Z,50.20
2022-12-15T09:45:16.347Z,50.50
2022-12-15T09:48:43.328Z,52.40
2022-12-15T09:52:12.302Z,50.70
2022-12-15T09:55:35.893Z,50.20
2022-12-15T09:59:07.639Z,49.60
2022-12-15T10:03:00.816Z,47.70
2022-12-15T10:06:32.845Z,45.20
2022-12-15T10:09:57.730Z,44.70
2022-12-15T10:13:25.899Z,46.60
2022-12-15T10:16:56.542Z,48.20
2022-12-15T10:20:24.180Z,48.70
2022-12-15T10:23:50.957Z,49.60
2022-12-15T10:27:28.362Z,50.60
2022-12-15T10:30:56.665Z,52.10
2022-12-15T10:34:27.678Z,53.50
2022-12-15T10:37:52.714Z,51.80
2022-12-15T10:41:18.456Z,52.20
2022-12-15T10:44:44.141Z,51.20
2022-12-15T10:48:20.873Z,51.10
2022-12-15T10:51:48.172Z,50.50
2022-12-15T10:55:34.407Z,50.60
2022-12-15T10:59:00.480Z,50.90
2022-12-15T11:02:35.367Z,50.80
2022-12-15T11:06:02.664Z,51.40
2022-12-15T11:09:33.288Z,51.00
2022-12-15T11:13:11.092Z,51.00
2022-12-15T11:16:43.722Z,51.90
2022-12-15T11:20:14.756Z,51.90
2022-12-15T11:24:00.742Z,52.20
2022-12-15T11:27:32.229Z,52.20
2022-12-15T11:31:03.910Z,52.00
2022-12-15T11:34:38.710Z,52.30
2022-12-15T11:38:09.949Z,52.50
2022-12-15T11:41:41.239Z,52.50
2022-12-15T11:45:15.526Z,52.60
2022-12-15T11:48:47.600Z,52.40
2022-12-15T11:52:27.918Z,52.40
2022-12-15T11:55:59.759Z,52.50
2022-12-15T11:59:52.375Z,52.10
2022-12-15T12:03:26.317Z,52.40
2022-12-15T12:07:01.843Z,52.40
2022-12-15T12:10:34.788Z,52.60
2022-12-15T12:14:15.747Z,52.40
2022-12-15T12:17:44.682Z,52.60
2022-12-15T12:21:12.427Z,52.30
2022-12-15T12:24:44.262Z,52.50
2022-12-15T12:28:21.785Z,53.20
2022-12-15T12:32:04.180Z,53.20
2022-12-15T12:35:38.459Z,53.40
2022-12-15T12:39:02.575Z,53.40
2022-12-15T12:42:32.562Z,53.70
2022-12-15T12:45:59.808Z,54.10
2022-12-15T12:49:28.678Z,53.90
2022-12-15T12:52:55.191Z,54.00
2022-12-15T12:56:34.724Z,54.30
2022-12-15T13:00:02.604Z,54.70
2022-12-15T13:03:28.929Z,54.50
2022-12-15T13:07:03.219Z,54.60
2022-12-15T13:10:27.040Z,54.80
2022-12-15T13:17:42.711Z,55.10
2022-12-15T13:21:52.101Z,55.20
2022-12-15T13:25:48.570Z,55.60
2022-12-15T13:29:22.730Z,55.90
2022-12-15T13:32:52.472Z,55.70
2022-12-15T13:36:50.622Z,55.90
2022-12-15T13:40:36.425Z,56.00
2022-12-15T13:44:01.398Z,56.30
2022-12-15T13:47:28.914Z,56.40
2022-12-15T13:51:02.451Z,56.50
2022-12-15T13:54:32.713Z,56.30
2022-12-15T13:58:01.035Z,56.20
2022-12-15T14:05:17.472Z,56.50
2022-12-15T14:08:43.139Z,56.30
2022-12-15T14:12:09.529Z,56.30
2022-12-15T14:15:35.297Z,56.30
2022-12-15T14:19:15.295Z,56.50
2022-12-15T14:22:43.333Z,56.70
2022-12-15T14:26:11.204Z,56.80
2022-12-15T14:29:35.163Z,57.50
2022-12-15T14:33:03.293Z,57.00
2022-12-15T14:36:27.210Z,57.10
2022-12-15T14:39:51.396Z,57.10
2022-12-15T14:43:20.323Z,57.20
2022-12-15T14:46:47.717Z,57.40
2022-12-15T14:50:12.953Z,57.60
2022-12-15T14:53:39.323Z,57.70
2022-12-15T14:57:13.105Z,57.60
2022-12-15T15:00:50.046Z,57.70
2022-12-15T15:03:09.889Z,55.10
2022-12-15T15:03:10.108Z,56.30
2022-12-15T15:04:25.962Z,57.80
2022-12-15T15:07:55.740Z,58.60
2022-12-15T15:11:26.748Z,58.10
2022-12-15T15:14:54.083Z,58.30
2022-12-15T15:18:22.659Z,58.70
2022-12-15T15:21:47.805Z,59.30
2022-12-15T15:25:39.846Z,59.40
2022-12-15T15:29:05.486Z,59.80
2022-12-15T15:32:29.151Z,60.60
2022-12-15T15:35:56.483Z,60.70
2022-12-15T15:39:21.467Z,60.70
2022-12-15T15:42:46.462Z,61.60
2022-12-15T15:46:15.725Z,62.00
2022-12-15T15:49:39.668Z,62.30
2022-12-15T15:53:05.965Z,62.50
2022-12-15T15:56:30.856Z,62.50
2022-12-15T15:59:55.394Z,62.80
2022-12-15T16:03:19.504Z,63.20
2022-12-15T16:06:47.623Z,63.50
2022-12-15T16:10:16.613Z,64.00
2022-12-15T16:13:40.353Z,64.40
2022-12-15T16:17:04.063Z,64.70
2022-12-15T16:20:30.036Z,65.00
2022-12-15T16:23:55.018Z,65.30
2022-12-15T16:27:20.265Z,65.00
2022-12-15T16:30:44.823Z,65.30
2022-12-15T16:34:08.623Z,66.10
2022-12-15T16:37:36.269Z,65.40
2022-12-15T16:41:07.802Z,65.60
2022-12-15T16:44:33.296Z,65.80
2022-12-15T16:47:57.782Z,66.30
2022-12-15T16:51:34.340Z,66.60
2022-12-15T16:54:58.588Z,66.60
2022-12-15T16:58:23.136Z,66.80
2022-12-15T17:01:49.260Z,66.70
2022-12-15T17:05:13.440Z,67.00
2022-12-15T17:08:41.297Z,67.50
2022-12-15T17:12:05.985Z,67.40
2022-12-15T17:15:30.329Z,67.30
2022-12-15T17:18:56.172Z,67.60
2022-12-15T17:22:21.001Z,68.00
2022-12-15T17:29:34.401Z,68.40
2022-12-15T17:32:58.154Z,68.50
2022-12-15T17:36:25.057Z,68.80
2022-12-15T17:39:51.504Z,69.00
2022-12-15T17:43:17.385Z,69.10
2022-12-15T17:46:41.048Z,69.60
2022-12-15T17:50:05.646Z,69.60
2022-12-15T17:53:31.747Z,69.50
2022-12-15T17:56:55.770Z,69.80
2022-12-15T18:00:23.121Z,69.90
2022-12-15T18:03:46.895Z,69.90
2022-12-15T18:07:16.624Z,70.30
2022-12-15T18:10:42.637Z,70.60
2022-12-15T18:14:12.019Z,70.80
2022-12-15T18:17:37.289Z,71.00
2022-12-15T18:21:08.977Z,70.90
2022-12-15T18:24:33.225Z,71.10
2022-12-15T18:27:59.382Z,71.30
2022-12-15T18:31:26.805Z,71.20
2022-12-15T18:34:50.547Z,71.40
2022-12-15T18:38:18.799Z,71.00
2022-12-15T18:41:42.731Z,70.90
2022-12-15T18:45:18.082Z,70.90
2022-12-15T18:48:43.445Z,71.30
2022-12-15T18:52:10.147Z,71.60
2022-12-15T18:55:34.066Z,72.00
2022-12-15T18:58:58.002Z,72.20
2022-12-15T19:02:23.267Z,73.10
2022-12-15T19:05:47.761Z,72.70
2022-12-15T19:09:16.695Z,73.00
2022-12-15T19:12:40.525Z,73.20
2022-12-15T19:16:06.411Z,73.50
2022-12-15T19:19:48.935Z,73.80
2022-12-15T19:23:13.803Z,74.10
2022-12-15T19:26:40.119Z,74.00
2022-12-15T19:30:07.123Z,74.20
2022-12-15T19:33:31.201Z,73.60
2022-12-15T19:36:56.469Z,73.50
2022-12-15T19:40:22.463Z,73.80
2022-12-15T19:43:46.316Z,73.90
2022-12-15T19:47:14.063Z,73.80
2022-12-15T19:50:38.931Z,73.80
2022-12-15T19:54:04.252Z,74.00
2022-12-15T19:57:28.013Z,73.80
2022-12-15T20:00:53.859Z,74.00
2022-12-15T20:04:22.379Z,74.90
2022-12-15T20:07:48.470Z,74.60
2022-12-15T20:11:18.175Z,75.10
2022-12-15T20:14:42.793Z,75.30
2022-12-15T20:18:06.609Z,75.10
2022-12-15T20:21:34.044Z,75.70
2022-12-15T20:24:57.757Z,76.10
2022-12-15T20:28:25.562Z,76.00
2022-12-15T20:31:49.491Z,75.90
2022-12-15T20:35:16.367Z,76.40
2022-12-15T20:38:40.088Z,76.30
2022-12-15T20:42:03.672Z,76.30
2022-12-15T20:45:29.318Z,76.00
2022-12-15T20:48:56.766Z,75.70
2022-12-15T20:52:22.631Z,75.80
2022-12-15T20:55:46.831Z,76.20
2022-12-15T20:59:10.779Z,76.20
2022-12-15T21:02:36.225Z,76.40
2022-12-15T21:06:00.541Z,76.60
2022-12-15T21:09:25.257Z,76.60
2022-12-15T21:12:50.652Z,76.50
2022-12-15T21:16:17.114Z,76.30
2022-12-15T21:19:43.209Z,76.40
2022-12-15T21:23:17.131Z,76.30
2022-12-15T21:26:41.378Z,76.20
2022-12-15T21:30:14.541Z,76.00
2022-12-15T21:33:39.192Z,76.40
2022-12-15T21:37:05.383Z,76.30
2022-12-15T21:40:29.759Z,76.10
2022-12-15T21:43:53.498Z,75.90
2022-12-15T21:47:25.541Z,76.00
2022-12-15T21:50:49.352Z,76.40
2022-12-15T21:54:19.518Z,76.90
2022-12-15T21:57:43.102Z,76.20
2022-12-15T22:01:08.894Z,76.50
2022-12-15T22:04:35.064Z,76.30
2022-12-15T22:08:01.293Z,76.20
2022-12-15T22:11:29.177Z,76.30
2022-12-15T22:14:53.149Z,76.40
2022-12-15T22:18:22.482Z,76.10
2022-12-15T22:21:46.747Z,76.10
2022-12-15T22:25:17.617Z,76.30
2022-12-15T22:28:45.235Z,76.30
2022-12-15T22:32:13.948Z,76.50
2022-12-15T22:35:37.634Z,76.60
2022-12-15T22:39:07.391Z,76.70
2022-12-15T22:42:32.723Z,76.60
2022-12-15T22:45:57.827Z,76.80
2022-12-15T22:49:26.171Z,76.70
2022-12-15T22:52:50.913Z,76.90
2022-12-15T22:56:25.028Z,76.40
2022-12-15T22:59:52.498Z,76.40
2022-12-15T23:03:21.193Z,76.50
2022-12-15T23:06:46.809Z,77.00
2022-12-15T23:10:30.011Z,76.90
2022-12-15T23:13:54.754Z,76.70
2022-12-15T23:17:18.481Z,76.80
2022-12-15T23:20:44.106Z,77.00
2022-12-15T23:24:09.328Z,77.10
2022-12-15T23:27:34.195Z,76.90
2022-12-15T23:30:58.805Z,76.80
2022-12-15T23:34:22.802Z,76.80
2022-12-15T23:37:51.416Z,77.10
2022-12-15T23:41:17.746Z,77.10
2022-12-15T23:44:42.628Z,77.50
2022-12-15T23:48:07.477Z,77.50
2022-12-15T23:51:31.855Z,77.40
2022-12-15T23:54:57.268Z,77.50
2022-12-15T23:58:21.849Z,77.80
